Time;durP1;ratioP1;P1;durP2;ratioP2;P2;SDS_P1;SDS_P2;PMS_P1;PMS_P2;Temp;Humidity;BMP_temperature;BMP_pressure;BME280_temperature;BME280_humidity;BME280_pressure;Samples;Min_cycle;Max_cycle;Signal;HPM_P1;HPM_P2
2023/07/02 00:02:29;;;;;;;1.40;1.27;;;20.90;99.90;;;;;;10059682;28;20079;-63
2023/07/02 00:07:19;;;;;;;2.53;1.67;;;20.90;99.90;;;;;;10066606;28;20029;-63
2023/07/02 00:12:10;;;;;;;2.00;1.35;;;21.00;99.90;;;;;;10080011;28;20164;-62
2023/07/02 00:17:01;;;;;;;2.22;1.45;;;21.00;99.90;;;;;;10066522;28;20152;-62
2023/07/02 00:21:53;;;;;;;1.90;1.17;;;21.00;99.90;;;;;;10069747;28;20030;-62
2023/07/02 00:26:43;;;;;;;1.60;1.25;;;21.00;99.90;;;;;;10067355;28;20423;-63
2023/07/02 00:31:35;;;;;;;2.80;1.70;;;21.00;99.90;;;;;;10038802;28;20049;-62
2023/07/02 00:36:25;;;;;;;2.03;1.50;;;21.00;99.90;;;;;;10051945;28;20566;-63
2023/07/02 00:41:16;;;;;;;1.92;1.20;;;21.10;99.90;;;;;;10061220;28;20116;-63
2023/07/02 00:46:07;;;;;;;2.70;1.40;;;20.90;99.90;;;;;;10070739;28;20048;-62
2023/07/02 00:50:58;;;;;;;1.25;1.08;;;20.90;99.90;;;;;;10061178;28;20128;-63
2023/07/02 00:55:49;;;;;;;1.88;1.30;;;21.00;99.90;;;;;;10069711;28;20047;-62
2023/07/02 01:00:39;;;;;;;2.42;1.48;;;21.00;99.90;;;;;;10037839;28;20056;-62
2023/07/02 01:05:35;;;;;;;2.50;1.20;;;21.00;99.90;;;;;;10034466;28;20026;-63
2023/07/02 01:10:26;;;;;;;2.38;1.42;;;20.90;99.90;;;;;;10056496;28;20021;-62
2023/07/02 01:15:17;;;;;;;2.72;1.80;;;20.70;99.90;;;;;;10065113;28;20060;-62
2023/07/02 01:20:12;;;;;;;3.63;1.67;;;20.50;99.90;;;;;;10070839;28;20021;-61
2023/07/02 01:25:03;;;;;;;4.40;2.20;;;20.40;99.90;;;;;;10065513;28;20372;-62
2023/07/02 01:29:54;;;;;;;2.92;1.58;;;20.40;99.90;;;;;;10060697;28;20029;-62
2023/07/02 01:34:48;;;;;;;3.85;1.67;;;20.30;99.90;;;;;;10067033;28;20048;-62
2023/07/02 01:39:39;;;;;;;3.97;2.05;;;20.00;99.90;;;;;;10049395;28;20065;-62
2023/07/02 01:44:29;;;;;;;3.28;1.52;;;20.00;99.90;;;;;;10069394;28;20075;-63
2023/07/02 01:49:20;;;;;;;5.35;1.98;;;20.00;99.90;;;;;;10071830;28;20380;-62
2023/07/02 01:54:11;;;;;;;7.50;2.67;;;19.80;99.90;;;;;;10066768;28;20045;-62
2023/07/02 01:59:02;;;;;;;2.50;1.55;;;19.70;99.90;;;;;;10056417;28;20195;-63
2023/07/02 02:03:52;;;;;;;6.22;2.03;;;19.70;99.90;;;;;;10061382;28;20068;-62
2023/07/02 02:08:43;;;;;;;5.35;2.63;;;19.50;99.90;;;;;;10079496;28;20145;-62
2023/07/02 02:13:33;;;;;;;2.92;2.03;;;19.40;99.90;;;;;;10077321;28;20055;-62
2023/07/02 02:18:24;;;;;;;2.67;1.73;;;19.30;99.90;;;;;;10069654;28;20063;-62
2023/07/02 02:23:15;;;;;;;3.20;2.15;;;19.30;99.90;;;;;;10063456;28;20406;-64
2023/07/02 02:28:05;;;;;;;3.78;1.70;;;19.20;99.90;;;;;;10057497;28;20389;-63
2023/07/02 02:32:56;;;;;;;3.42;1.77;;;19.20;99.90;;;;;;10050418;28;20046;-62
2023/07/02 02:37:46;;;;;;;2.92;1.90;;;19.20;99.90;;;;;;10063772;28;20585;-62
2023/07/02 02:42:39;;;;;;;3.60;2.35;;;19.20;99.90;;;;;;10073615;28;20040;-62
2023/07/02 02:47:29;;;;;;;3.72;1.70;;;19.20;99.90;;;;;;10076126;28;20056;-61
2023/07/02 02:52:20;;;;;;;4.80;1.67;;;19.20;99.90;;;;;;10067145;28;20452;-62
2023/07/02 02:57:11;;;;;;;3.08;1.88;;;19.20;99.90;;;;;;10048732;28;20037;-63
2023/07/02 03:02:01;;;;;;;2.85;1.88;;;19.30;99.90;;;;;;10038974;28;20117;-61
2023/07/02 03:06:52;;;;;;;3.63;1.77;;;19.50;99.90;;;;;;10056935;28;20025;-62
2023/07/02 03:11:43;;;;;;;3.17;1.90;;;19.50;99.90;;;;;;10069744;28;20514;-62
2023/07/02 03:16:34;;;;;;;3.95;2.05;;;19.50;99.90;;;;;;10072182;28;20040;-62
2023/07/02 03:21:24;;;;;;;3.60;1.20;;;19.50;99.90;;;;;;10072279;28;20054;-61
2023/07/02 03:26:15;;;;;;;3.20;1.65;;;19.50;99.90;;;;;;10071969;28;20033;-62
2023/07/02 03:31:06;;;;;;;2.13;1.70;;;19.40;99.90;;;;;;10064719;28;20194;-61
2023/07/02 03:35:56;;;;;;;5.05;1.73;;;19.50;99.90;;;;;;10072941;28;20084;-61
2023/07/02 03:40:47;;;;;;;3.88;1.75;;;19.50;99.90;;;;;;10067302;28;20032;-61
2023/07/02 03:45:38;;;;;;;2.55;1.60;;;19.40;99.90;;;;;;10081557;28;20442;-62
2023/07/02 03:50:28;;;;;;;2.97;1.80;;;19.40;99.90;;;;;;10079102;28;20411;-61
2023/07/02 03:55:19;;;;;;;4.03;1.77;;;19.30;99.90;;;;;;10058367;28;20155;-62
2023/07/02 04:00:11;;;;;;;3.72;2.15;;;19.30;99.90;;;;;;10059313;28;20049;-61
2023/07/02 04:05:02;;;;;;;2.70;2.15;;;19.30;99.90;;;;;;10066488;28;20095;-61
2023/07/02 04:09:53;;;;;;;4.57;2.03;;;19.30;99.90;;;;;;10082225;28;20377;-62
2023/07/02 04:14:43;;;;;;;5.80;2.42;;;19.40;99.90;;;;;;10077618;28;20323;-62
2023/07/02 04:19:34;;;;;;;4.15;2.35;;;19.60;99.90;;;;;;10072404;28;20133;-62
2023/07/02 04:24:25;;;;;;;3.00;2.17;;;19.50;99.90;;;;;;10066978;28;20513;-62
2023/07/02 04:29:16;;;;;;;8.75;3.03;;;19.40;99.90;;;;;;10057219;28;20036;-61
2023/07/02 04:34:07;;;;;;;5.95;2.78;;;19.60;99.90;;;;;;10061205;28;20052;-61
2023/07/02 04:38:57;;;;;;;8.15;3.78;;;19.60;99.90;;;;;;10082615;28;20218;-62
2023/07/02 04:43:48;;;;;;;6.80;4.03;;;19.60;99.90;;;;;;10076664;28;20025;-61
2023/07/02 04:48:39;;;;;;;8.05;4.60;;;19.60;99.90;;;;;;10079114;28;20036;-62
2023/07/02 04:53:29;;;;;;;9.10;4.10;;;19.60;99.90;;;;;;10050020;28;20044;-62
2023/07/02 04:58:20;;;;;;;8.38;5.05;;;19.70;99.90;;;;;;10063431;28;20026;-61
2023/07/02 05:03:11;;;;;;;10.70;5.70;;;19.80;99.90;;;;;;10051663;28;20037;-61
2023/07/02 05:08:01;;;;;;;11.73;5.60;;;19.90;99.90;;;;;;10071088;28;20499;-62
2023/07/02 05:12:52;;;;;;;12.60;5.88;;;20.00;99.90;;;;;;10076403;28;20024;-62
2023/07/02 05:17:43;;;;;;;11.85;5.38;;;20.00;99.90;;;;;;10076015;28;20106;-62
2023/07/02 05:22:33;;;;;;;12.60;5.20;;;19.90;99.90;;;;;;10073127;28;20047;-62
2023/07/02 05:27:24;;;;;;;11.10;5.22;;;19.90;99.90;;;;;;10067259;28;20033;-62
2023/07/02 05:32:14;;;;;;;16.77;6.05;;;19.90;99.90;;;;;;10058906;28;20104;-62
2023/07/02 05:37:06;;;;;;;8.50;5.05;;;20.00;99.90;;;;;;10069157;28;20044;-62
2023/07/02 05:41:56;;;;;;;11.27;5.85;;;20.10;99.90;;;;;;10069232;28;20108;-62
2023/07/02 05:46:47;;;;;;;12.45;6.45;;;20.00;99.90;;;;;;10068582;28;20559;-62
2023/07/02 05:51:38;;;;;;;8.60;4.90;;;20.10;99.90;;;;;;10067727;28;20623;-61
2023/07/02 05:56:28;;;;;;;11.38;6.10;;;20.20;99.90;;;;;;10061291;28;20590;-62
2023/07/02 06:01:19;;;;;;;13.73;6.25;;;20.20;99.90;;;;;;10060861;28;20414;-62
2023/07/02 06:06:11;;;;;;;14.07;6.40;;;20.30;99.90;;;;;;10064535;28;20036;-62
2023/07/02 06:11:01;;;;;;;11.90;6.70;;;20.40;99.90;;;;;;10074544;28;20046;-61
2023/07/02 06:15:52;;;;;;;16.42;7.20;;;20.30;99.90;;;;;;10076511;28;20045;-62
2023/07/02 06:20:43;;;;;;;13.57;6.90;;;20.30;99.90;;;;;;10058628;28;20017;-62
2023/07/02 06:25:33;;;;;;;13.52;7.07;;;20.40;99.90;;;;;;10067827;28;20057;-61
2023/07/02 06:30:25;;;;;;;13.10;6.82;;;20.40;99.90;;;;;;10061285;28;20053;-61
2023/07/02 06:35:16;;;;;;;13.45;6.82;;;20.50;99.90;;;;;;10057541;28;20087;-62
2023/07/02 06:40:08;;;;;;;16.75;7.55;;;20.50;99.90;;;;;;10066967;28;20102;-62
2023/07/02 06:44:59;;;;;;;14.27;7.07;;;20.70;99.70;;;;;;10075099;28;20499;-62
2023/07/02 06:49:51;;;;;;;12.60;6.57;;;20.90;99.60;;;;;;10071958;28;20037;-62
2023/07/02 06:54:42;;;;;;;13.80;6.47;;;21.10;99.40;;;;;;10065686;28;20069;-62
2023/07/02 06:59:32;;;;;;;15.13;6.85;;;21.20;99.20;;;;;;10061195;28;20029;-65
2023/07/02 07:04:23;;;;;;;14.05;6.68;;;21.00;99.40;;;;;;10059558;28;20113;-62
2023/07/02 07:09:13;;;;;;;15.73;9.98;;;21.10;99.20;;;;;;10077929;28;20224;-62
2023/07/02 07:14:04;;;;;;;17.88;9.68;;;21.00;99.00;;;;;;10073102;28;20037;-62
2023/07/02 07:18:55;;;;;;;14.73;7.72;;;21.00;99.00;;;;;;10072315;28;20041;-61
2023/07/02 07:23:45;;;;;;;16.98;7.13;;;21.10;98.80;;;;;;10063814;28;20395;-62
2023/07/02 07:28:36;;;;;;;16.10;8.15;;;21.20;98.60;;;;;;10042649;28;20068;-62
2023/07/02 07:33:27;;;;;;;16.48;7.80;;;21.30;98.50;;;;;;10064870;28;20099;-62
2023/07/02 07:38:18;;;;;;;15.85;8.43;;;21.30;98.20;;;;;;10072633;28;20033;-62
2023/07/02 07:43:08;;;;;;;19.70;8.77;;;21.40;97.90;;;;;;10064630;28;20486;-63
2023/07/02 07:47:59;;;;;;;22.80;10.18;;;21.60;97.60;;;;;;10077599;28;20120;-62
2023/07/02 07:52:51;;;;;;;17.38;8.50;;;21.50;97.30;;;;;;10072231;28;20095;-62
2023/07/02 07:57:41;;;;;;;16.42;8.38;;;21.60;97.10;;;;;;10062345;28;20093;-62
2023/07/02 08:02:32;;;;;;;14.55;7.50;;;21.50;96.80;;;;;;10047223;28;20510;-62
2023/07/02 08:07:22;;;;;;;14.90;7.53;;;22.00;96.50;;;;;;10069034;28;20078;-61
2023/07/02 08:12:13;;;;;;;16.88;8.13;;;22.20;96.30;;;;;;10073082;28;20044;-61
2023/07/02 08:17:04;;;;;;;13.73;8.05;;;22.30;96.60;;;;;;10072153;28;20045;-61
2023/07/02 08:21:54;;;;;;;18.75;7.47;;;22.30;96.20;;;;;;10068878;28;20034;-61
2023/07/02 08:26:46;;;;;;;18.13;8.13;;;22.20;96.20;;;;;;10065779;28;20029;-63
2023/07/02 08:31:37;;;;;;;15.30;7.53;;;22.10;96.20;;;;;;10062051;28;20534;-62
2023/07/02 08:36:28;;;;;;;14.85;7.57;;;22.40;96.00;;;;;;10065691;28;20471;-62
2023/07/02 08:41:21;;;;;;;19.88;8.40;;;22.40;95.80;;;;;;10088542;28;20026;-61
2023/07/02 08:46:12;;;;;;;17.55;8.30;;;22.30;95.70;;;;;;10080453;28;20102;-62
2023/07/02 08:51:03;;;;;;;20.75;8.98;;;22.20;95.50;;;;;;10078961;28;20072;-61
2023/07/02 08:55:54;;;;;;;17.63;9.18;;;22.20;95.20;;;;;;10059135;28;20060;-62
2023/07/02 09:01:14;;;;;;;17.65;9.85;;;22.20;95.00;;;;;;10059335;28;20527;-62
2023/07/02 09:06:06;;;;;;;24.25;10.00;;;22.20;94.20;;;;;;10036731;28;20068;-62
2023/07/02 09:11:07;;;;;;;18.90;9.23;;;22.20;94.00;;;;;;10069816;28;20135;-61
2023/07/02 09:15:57;;;;;;;16.20;9.02;;;22.20;93.50;;;;;;10073874;28;20045;-61
2023/07/02 09:20:53;;;;;;;20.20;8.63;;;22.40;93.10;;;;;;10067765;28;20029;-62
2023/07/02 09:25:44;;;;;;;23.30;10.23;;;22.40;92.50;;;;;;10073826;28;20064;-61
2023/07/02 09:30:35;;;;;;;20.08;9.15;;;22.60;92.40;;;;;;10060831;28;20045;-62
2023/07/02 09:35:25;;;;;;;21.30;9.60;;;22.60;92.10;;;;;;10049744;28;20033;-62
2023/07/02 09:40:17;;;;;;;18.40;8.60;;;22.80;91.70;;;;;;10068282;28;20036;-61
2023/07/02 09:45:10;;;;;;;20.10;10.98;;;23.00;91.30;;;;;;10059645;28;20021;-61
2023/07/02 09:50:05;;;;;;;17.60;8.07;;;23.20;91.10;;;;;;10067151;28;20521;-61
2023/07/02 09:54:56;;;;;;;18.10;8.10;;;23.10;90.90;;;;;;10059875;28;20044;-61
2023/07/02 09:59:47;;;;;;;17.60;8.82;;;23.10;90.80;;;;;;10061784;28;20030;-63
2023/07/02 10:04:45;;;;;;;14.48;8.15;;;23.50;90.50;;;;;;10061113;28;20076;-63
2023/07/02 10:09:36;;;;;;;14.70;8.30;;;23.70;89.40;;;;;;10081204;28;20386;-62
2023/07/02 10:14:39;;;;;;;16.45;8.40;;;23.60;89.60;;;;;;10058631;28;20057;-62
2023/07/02 10:19:30;;;;;;;17.52;8.77;;;23.60;89.30;;;;;;10057645;28;20486;-63
2023/07/02 10:24:20;;;;;;;15.90;8.30;;;23.60;87.80;;;;;;10059974;28;20030;-62
2023/07/02 10:29:18;;;;;;;14.73;7.53;;;23.50;87.10;;;;;;10064782;28;20026;-62
2023/07/02 10:34:09;;;;;;;13.40;8.70;;;23.80;86.40;;;;;;10061491;28;20076;-62
2023/07/02 10:39:05;;;;;;;19.60;8.93;;;23.80;85.70;;;;;;10066967;28;20031;-63
2023/07/02 10:44:06;;;;;;;17.65;8.45;;;24.00;85.30;;;;;;10077551;28;20040;-63
2023/07/02 10:48:57;;;;;;;15.95;8.80;;;24.00;84.70;;;;;;10060024;28;20036;-62
2023/07/02 10:54:02;;;;;;;14.20;7.32;;;23.90;85.00;;;;;;10067310;28;20116;-62
2023/07/02 10:58:52;;;;;;;;;;;24.00;83.60;;;;;;10046311;28;20037;-63
2023/07/02 11:03:43;;;;;;;18.92;8.85;;;24.20;81.80;;;;;;10061379;28;20379;-63
2023/07/02 11:08:37;;;;;;;15.63;7.93;;;24.60;82.80;;;;;;10076400;28;20041;-62
2023/07/02 11:13:27;;;;;;;15.97;7.93;;;24.90;82.10;;;;;;10068302;28;20064;-62
2023/07/02 11:18:21;;;;;;;14.10;8.27;;;24.80;81.90;;;;;;10065974;28;20545;-63
2023/07/02 11:23:25;;;;;;;14.83;7.23;;;24.50;81.30;;;;;;10068618;28;20029;-62
2023/07/02 11:28:16;;;;;;;15.83;7.80;;;24.70;80.00;;;;;;10060294;28;20706;-62
2023/07/02 11:33:06;;;;;;;13.93;7.53;;;24.80;79.40;;;;;;10058935;28;20060;-62
2023/07/02 11:37:57;;;;;;;13.82;7.60;;;24.80;78.90;;;;;;10081497;28;20124;-61
2023/07/02 11:42:47;;;;;;;18.17;8.73;;;25.00;78.50;;;;;;10086002;28;21147;-63
2023/07/02 11:47:39;;;;;;;12.05;6.68;;;25.00;78.00;;;;;;10085233;28;20025;-62
2023/07/02 11:52:29;;;;;;;17.95;7.95;;;25.30;77.30;;;;;;10077962;28;20181;-63
2023/07/02 11:57:21;;;;;;;14.30;8.15;;;25.10;76.50;;;;;;10060951;28;20312;-62
2023/07/02 12:02:12;;;;;;;14.15;7.38;;;25.20;76.00;;;;;;10051843;28;20369;-63
2023/07/02 12:07:03;;;;;;;15.32;8.02;;;25.50;75.50;;;;;;10066048;28;20042;-63
2023/07/02 12:11:54;;;;;;;16.00;8.45;;;25.90;75.10;;;;;;10069005;28;20980;-63
2023/07/02 12:16:44;;;;;;;14.20;6.90;;;25.90;74.60;;;;;;10060450;28;20045;-63
2023/07/02 12:21:35;;;;;;;14.20;7.95;;;26.20;74.40;;;;;;10065434;28;20071;-63
2023/07/02 12:26:26;;;;;;;15.80;7.75;;;26.90;73.90;;;;;;10062082;28;20455;-62
2023/07/02 12:31:16;;;;;;;17.45;8.85;;;27.20;73.60;;;;;;10064345;28;20045;-63
2023/07/02 12:36:07;;;;;;;14.43;8.02;;;27.60;73.00;;;;;;10071971;28;20132;-62
2023/07/02 12:40:57;;;;;;;16.48;8.07;;;28.20;72.60;;;;;;10062253;28;20059;-63
2023/07/02 12:45:48;;;;;;;15.68;9.30;;;28.40;71.60;;;;;;10078469;28;20410;-63
2023/07/02 12:50:39;;;;;;;15.95;8.45;;;27.60;71.30;;;;;;10071738;28;20132;-63
2023/07/02 12:55:29;;;;;;;12.13;8.30;;;28.30;70.70;;;;;;10066682;28;20048;-63
2023/07/02 13:00:20;;;;;;;13.00;8.48;;;28.90;70.10;;;;;;10061330;28;20021;-62
2023/07/02 13:05:11;;;;;;;13.50;8.43;;;30.00;69.00;;;;;;10057734;28;20514;-63
2023/07/02 13:10:02;;;;;;;12.05;9.85;;;31.00;67.50;;;;;;10067851;28;20032;-63
2023/07/02 13:14:52;;;;;;;13.50;7.80;;;31.20;66.60;;;;;;10075813;28;20041;-63
2023/07/02 13:19:43;;;;;;;12.63;7.53;;;30.10;65.30;;;;;;10054544;28;20025;-63
2023/07/02 13:24:37;;;;;;;12.95;7.45;;;30.10;64.60;;;;;;10052595;28;20034;-63
2023/07/02 13:29:27;;;;;;;15.00;8.07;;;31.50;63.20;;;;;;10050650;28;20072;-62
2023/07/02 13:34:18;;;;;;;15.90;8.82;;;32.20;62.00;;;;;;10036596;28;20100;-62
2023/07/02 13:39:09;;;;;;;14.13;8.77;;;30.80;62.10;;;;;;10064110;28;20057;-63
2023/07/02 13:43:59;;;;;;;14.05;8.77;;;32.10;60.70;;;;;;10051147;28;20480;-63
2023/07/02 13:48:50;;;;;;;14.45;9.05;;;31.10;60.20;;;;;;10069495;28;20030;-63
2023/07/02 13:53:40;;;;;;;16.52;8.43;;;31.10;60.50;;;;;;10065524;28;20526;-62
2023/07/02 13:58:56;;;;;;;11.02;7.90;;;33.60;58.70;;;;;;10060704;28;20460;-63
2023/07/02 14:03:46;;;;;;;12.50;8.23;;;34.10;56.10;;;;;;10050341;28;20026;-63
2023/07/02 14:08:37;;;;;;;13.32;7.55;;;32.00;57.30;;;;;;10044947;28;20051;-63
2023/07/02 14:13:28;;;;;;;15.68;8.10;;;32.40;56.90;;;;;;10081127;28;20041;-63
2023/07/02 14:18:18;;;;;;;12.10;7.82;;;32.70;55.70;;;;;;10072212;28;20549;-62
2023/07/02 14:23:09;;;;;;;12.13;7.43;;;30.50;57.10;;;;;;10069989;28;20024;-62
2023/07/02 14:27:59;;;;;;;12.77;7.57;;;30.10;57.30;;;;;;10062557;28;20037;-63
2023/07/02 14:32:50;;;;;;;13.93;7.63;;;32.30;55.00;;;;;;10057351;28;20046;-62
2023/07/02 14:37:41;;;;;;;13.70;8.20;;;31.60;55.50;;;;;;10068502;28;20051;-63
2023/07/02 14:42:31;;;;;;;11.32;7.57;;;33.00;54.20;;;;;;10049962;28;20029;-63
2023/07/02 14:47:22;;;;;;;12.15;8.00;;;31.00;55.90;;;;;;10065064;28;20040;-63
2023/07/02 14:52:13;;;;;;;15.57;7.70;;;32.10;54.60;;;;;;10070590;28;20104;-63
2023/07/02 14:57:04;;;;;;;11.85;7.97;;;33.80;53.30;;;;;;10061208;28;20076;-63
2023/07/02 15:01:55;;;;;;;12.13;6.88;;;32.80;53.60;;;;;;10048600;28;20041;-63
2023/07/02 15:06:45;;;;;;;12.23;7.53;;;32.90;53.60;;;;;;10031349;28;20128;-62
2023/07/02 15:11:36;;;;;;;13.07;7.97;;;33.60;52.70;;;;;;10061637;28;20049;-61
2023/07/02 15:16:26;;;;;;;13.90;7.30;;;34.60;52.40;;;;;;10050698;28;20048;-64
2023/07/02 15:21:18;;;;;;;13.93;7.83;;;34.60;51.90;;;;;;10061002;28;20064;-62
2023/07/02 15:26:09;;;;;;;12.38;6.97;;;34.30;51.80;;;;;;10064202;28;20033;-62
2023/07/02 15:31:03;;;;;;;14.37;8.20;;;35.50;51.30;;;;;;10052812;28;20051;-61
2023/07/02 15:35:54;;;;;;;11.20;6.93;;;36.30;50.60;;;;;;10060338;28;20037;-61
2023/07/02 15:40:46;;;;;;;11.10;7.20;;;36.00;49.70;;;;;;10079888;28;20100;-61
2023/07/02 15:45:37;;;;;;;13.90;7.57;;;35.30;49.40;;;;;;10076710;28;20043;-61
2023/07/02 15:50:28;;;;;;;9.13;6.17;;;36.40;48.80;;;;;;10081705;28;20043;-61
2023/07/02 15:55:19;;;;;;;11.48;6.85;;;36.30;48.10;;;;;;10064305;28;20038;-61
2023/07/02 16:00:10;;;;;;;;;;;37.10;47.60;;;;;;10058543;28;20057;-61
2023/07/02 16:05:01;;;;;;;9.20;6.30;;;37.70;46.40;;;;;;10066492;28;20401;-61
2023/07/02 16:09:51;;;;;;;12.37;6.10;;;38.20;46.80;;;;;;10078012;28;20087;-62
2023/07/02 16:14:42;;;;;;;10.93;6.37;;;38.00;45.90;;;;;;10072870;28;20030;-62
2023/07/02 16:19:33;;;;;;;7.23;5.43;;;38.10;45.60;;;;;;10069255;28;20028;-62
2023/07/02 16:24:27;;;;;;;12.23;6.63;;;38.70;44.70;;;;;;10067426;28;20033;-61
2023/07/02 16:29:19;;;;;;;11.02;6.75;;;39.10;43.70;;;;;;10065343;28;20037;-62
2023/07/02 16:34:10;;;;;;;13.63;6.20;;;39.80;42.80;;;;;;10069976;28;20095;-62
2023/07/02 16:39:01;;;;;;;10.25;7.20;;;39.50;42.20;;;;;;10080597;28;20033;-62
2023/07/02 16:43:51;;;;;;;11.00;6.93;;;39.60;42.00;;;;;;10081846;28;20029;-63
2023/07/02 16:48:42;;;;;;;11.30;6.90;;;38.70;42.10;;;;;;10074517;28;20087;-63
2023/07/02 16:53:34;;;;;;;10.57;6.47;;;38.90;42.00;;;;;;10074889;28;20041;-63
2023/07/02 16:58:26;;;;;;;15.90;7.15;;;38.80;42.00;;;;;;10060389;28;20543;-63
2023/07/02 17:03:16;;;;;;;12.23;7.53;;;39.70;41.90;;;;;;10059146;28;20519;-63
2023/07/02 17:08:07;;;;;;;14.73;6.07;;;39.20;41.50;;;;;;10074545;28;20060;-62
2023/07/02 17:12:58;;;;;;;12.45;7.53;;;38.80;41.90;;;;;;10074657;28;20410;-64
2023/07/02 17:17:48;;;;;;;12.20;8.07;;;38.70;41.80;;;;;;10051205;28;20049;-63
2023/07/02 17:22:39;;;;;;;11.80;7.17;;;38.80;41.70;;;;;;10069270;28;20068;-61
2023/07/02 17:27:31;;;;;;;13.10;8.17;;;37.20;42.30;;;;;;10066061;28;20075;-62
2023/07/02 17:32:23;;;;;;;11.88;6.88;;;36.50;42.60;;;;;;10065786;28;20053;-62
2023/07/02 17:37:16;;;;;;;14.35;8.07;;;35.60;43.00;;;;;;10065824;28;20041;-62
2023/07/02 17:42:07;;;;;;;15.52;8.48;;;34.90;43.30;;;;;;10065061;28;20037;-62
2023/07/02 17:47:03;;;;;;;11.93;7.77;;;34.70;43.80;;;;;;10063757;28;20078;-61
2023/07/02 17:51:54;;;;;;;14.70;7.60;;;34.50;44.00;;;;;;10065953;28;20441;-61
2023/07/02 17:56:49;;;;;;;13.82;8.27;;;34.10;44.30;;;;;;10060007;28;20442;-63
2023/07/02 18:01:44;;;;;;;13.32;7.43;;;33.60;45.00;;;;;;10057883;28;20108;-62
2023/07/02 18:06:35;;;;;;;14.63;8.02;;;32.80;45.50;;;;;;10073201;28;20029;-62
2023/07/02 18:11:26;;;;;;;18.02;8.63;;;31.00;46.60;;;;;;10064187;28;20017;-62
2023/07/02 18:16:17;;;;;;;19.67;9.38;;;29.60;47.50;;;;;;10064631;28;20045;-62
2023/07/02 18:21:07;;;;;;;15.45;8.20;;;28.80;48.10;;;;;;10037889;28;20119;-63
2023/07/02 18:25:59;;;;;;;16.10;7.65;;;28.40;48.50;;;;;;10058302;28;20112;-62
2023/07/02 18:30:50;;;;;;;14.60;6.82;;;28.00;49.00;;;;;;10074458;28;20041;-62
2023/07/02 18:35:41;;;;;;;16.15;8.27;;;28.00;49.40;;;;;;10061405;28;20124;-63
2023/07/02 18:40:34;;;;;;;12.20;6.38;;;27.40;50.10;;;;;;10065352;28;20365;-64
2023/07/02 18:45:26;;;;;;;15.32;8.43;;;27.50;50.30;;;;;;10050992;28;20045;-62
2023/07/02 18:50:17;;;;;;;13.70;6.95;;;27.40;50.50;;;;;;10051196;28;20519;-63
2023/07/02 18:55:08;;;;;;;17.45;7.93;;;26.80;51.40;;;;;;10052662;28;20098;-64
2023/07/02 18:59:59;;;;;;;13.10;6.38;;;27.00;51.40;;;;;;10046685;28;20053;-61
2023/07/02 19:04:51;;;;;;;15.05;7.20;;;26.90;51.90;;;;;;10049167;28;20535;-63
2023/07/02 19:09:41;;;;;;;14.40;7.57;;;26.40;52.50;;;;;;10049957;28;20490;-64
2023/07/02 19:14:35;;;;;;;13.63;7.55;;;26.20;53.00;;;;;;10055134;28;20033;-63
2023/07/02 19:19:26;;;;;;;14.57;7.13;;;26.10;53.30;;;;;;10055721;28;20129;-62
2023/07/02 19:24:16;;;;;;;12.05;6.72;;;25.90;53.70;;;;;;10051751;28;20120;-63
2023/07/02 19:29:12;;;;;;;13.90;7.43;;;25.80;53.90;;;;;;10052640;28;20044;-63
2023/07/02 19:34:05;;;;;;;15.18;7.22;;;25.60;54.40;;;;;;10054182;28;20059;-65
2023/07/02 19:38:56;;;;;;;16.15;8.35;;;25.50;55.00;;;;;;10058219;28;20022;-62
2023/07/02 19:43:48;;;;;;;18.15;8.40;;;25.20;55.20;;;;;;10052372;28;20442;-63
2023/07/02 19:48:39;;;;;;;15.25;7.15;;;25.00;55.50;;;;;;10053290;28;20021;-63
2023/07/02 19:53:30;;;;;;;15.95;7.05;;;24.90;55.70;;;;;;10053746;28;20041;-63
2023/07/02 19:58:21;;;;;;;16.77;7.10;;;24.80;56.40;;;;;;10060925;28;20507;-64
2023/07/02 20:03:12;;;;;;;14.70;7.03;;;24.80;56.40;;;;;;10054361;28;20045;-62
2023/07/02 20:08:03;;;;;;;17.52;8.32;;;24.70;56.70;;;;;;10028448;28;20021;-61
2023/07/02 20:12:54;;;;;;;16.13;6.03;;;24.50;57.20;;;;;;10055829;28;20033;-59
2023/07/02 20:17:45;;;;;;;15.88;7.53;;;24.50;57.20;;;;;;10044875;28;20064;-61
2023/07/02 20:22:36;;;;;;;14.10;6.72;;;24.30;57.50;;;;;;10043507;28;20103;-62
2023/07/02 20:27:26;;;;;;;10.85;5.65;;;24.50;57.40;;;;;;10044246;28;20446;-62
2023/07/02 20:32:19;;;;;;;14.02;7.03;;;24.40;57.70;;;;;;10069399;28;20088;-61
2023/07/02 20:37:12;;;;;;;11.93;6.35;;;24.50;57.70;;;;;;10079921;28;20033;-63
2023/07/02 20:42:04;;;;;;;10.85;5.57;;;24.40;57.90;;;;;;10074298;28;20264;-64
2023/07/02 20:46:56;;;;;;;9.65;5.78;;;24.30;58.00;;;;;;10056671;28;20030;-68
2023/07/02 20:51:50;;;;;;;12.40;5.63;;;24.20;58.40;;;;;;10050636;28;20048;-63
2023/07/02 20:56:41;;;;;;;12.68;5.93;;;24.20;58.40;;;;;;10060052;28;20035;-63
2023/07/02 21:01:31;;;;;;;12.60;6.45;;;24.20;58.20;;;;;;10045860;28;20182;-66
2023/07/02 21:06:25;;;;;;;13.00;5.15;;;24.10;58.60;;;;;;10064110;28;20104;-63
2023/07/02 21:11:15;;;;;;;13.68;5.85;;;24.20;58.70;;;;;;10052050;28;20538;-64
2023/07/02 21:16:06;;;;;;;12.35;5.60;;;24.10;58.70;;;;;;10053304;28;20124;-65
2023/07/02 21:20:57;;;;;;;14.00;6.00;;;24.10;58.90;;;;;;10073658;28;20214;-63
2023/07/02 21:25:55;;;;;;;15.50;5.60;;;24.10;59.00;;;;;;10052071;28;20048;-64
2023/07/02 21:30:47;;;;;;;14.07;6.80;;;24.00;59.10;;;;;;10051369;28;20037;-65
2023/07/02 21:35:38;;;;;;;11.35;4.57;;;23.90;59.40;;;;;;10052471;28;20040;-72
2023/07/02 21:40:28;;;;;;;11.18;6.28;;;23.90;59.60;;;;;;10059943;28;20378;-67
2023/07/02 21:45:19;;;;;;;16.50;6.13;;;24.10;59.60;;;;;;10056365;28;20462;-68
2023/07/02 21:50:10;;;;;;;16.85;6.57;;;24.10;59.70;;;;;;10058136;28;20032;-67
2023/07/02 21:55:01;;;;;;;13.27;5.55;;;24.10;59.70;;;;;;10060211;28;20128;-65
2023/07/02 21:59:51;;;;;;;14.40;7.80;;;24.20;59.80;;;;;;10053954;28;20498;-68
2023/07/02 22:04:45;;;;;;;12.80;5.38;;;24.10;60.00;;;;;;10068137;28;20030;-68
2023/07/02 22:09:36;;;;;;;17.60;6.27;;;24.00;60.30;;;;;;10037988;28;20590;-66
2023/07/02 22:14:26;;;;;;;11.68;5.70;;;24.00;60.40;;;;;;10052211;28;20161;-67
2023/07/02 22:19:18;;;;;;;14.57;6.22;;;23.90;60.60;;;;;;10058259;28;20116;-66
2023/07/02 22:24:08;;;;;;;10.93;6.20;;;23.80;60.70;;;;;;10055397;28;20022;-66
2023/07/02 22:28:59;;;;;;;11.27;5.70;;;23.70;60.80;;;;;;10038921;28;20032;-68
2023/07/02 22:33:50;;;;;;;14.07;6.88;;;23.60;61.00;;;;;;10060808;28;20034;-67
2023/07/02 22:38:40;;;;;;;13.27;5.03;;;23.50;61.30;;;;;;10059313;28;20048;-66
2023/07/02 22:43:31;;;;;;;14.80;6.22;;;23.50;61.20;;;;;;10050712;28;20503;-67
2023/07/02 22:48:22;;;;;;;12.27;5.53;;;23.40;61.30;;;;;;10048591;28;20103;-65
2023/07/02 22:53:12;;;;;;;11.00;5.25;;;23.30;61.50;;;;;;10069163;28;20025;-69
2023/07/02 22:58:03;;;;;;;10.77;5.80;;;23.30;61.70;;;;;;10056684;28;20049;-65
2023/07/02 23:02:54;;;;;;;11.38;5.95;;;23.30;61.90;;;;;;10052733;28;20041;-67
2023/07/02 23:07:46;;;;;;;16.88;6.13;;;23.20;62.10;;;;;;10075764;28;20044;-66
2023/07/02 23:12:37;;;;;;;13.27;6.25;;;23.20;62.20;;;;;;10073372;28;20026;-66
2023/07/02 23:17:27;;;;;;;11.65;5.20;;;23.10;62.30;;;;;;10069733;28;20947;-66
2023/07/02 23:22:18;;;;;;;15.70;5.97;;;23.10;62.40;;;;;;10060917;28;20022;-67
2023/07/02 23:27:09;;;;;;;10.48;5.20;;;23.10;62.60;;;;;;10056464;28;20029;-66
2023/07/02 23:32:00;;;;;;;12.15;6.30;;;23.10;62.50;;;;;;10095685;28;20048;-66
2023/07/02 23:36:50;;;;;;;9.90;5.47;;;23.10;62.70;;;;;;10078327;28;20088;-67
2023/07/02 23:41:41;;;;;;;11.77;4.88;;;23.10;62.80;;;;;;10053060;28;20113;-66
2023/07/02 23:46:32;;;;;;;16.00;6.40;;;23.00;63.00;;;;;;10078084;28;20045;-66
2023/07/02 23:51:23;;;;;;;8.70;4.68;;;23.00;63.10;;;;;;10076586;28;20033;-67
2023/07/02 23:56:13;;;;;;;13.38;6.20;;;22.90;63.40;;;;;;10061604;28;20046;-67
